sensor_id;sensor_type;location;lat;lon;timestamp;temperature;humidity
25871;DHT22;13689;48.590;7.752;2022-09-16T00:00:00;17.00;93.00
25871;DHT22;13689;48.590;7.752;2022-09-16T00:02:26;17.00;92.90
25871;DHT22;13689;48.590;7.752;2022-09-16T00:04:51;17.00;92.80
25871;DHT22;13689;48.590;7.752;2022-09-16T00:07:18;17.00;92.70
25871;DHT22;13689;48.590;7.752;2022-09-16T00:09:44;17.10;92.80
25871;DHT22;13689;48.590;7.752;2022-09-16T00:12:10;17.00;92.80
25871;DHT22;13689;48.590;7.752;2022-09-16T00:14:35;17.00;92.80
25871;DHT22;13689;48.590;7.752;2022-09-16T00:17:00;17.00;92.90
25871;DHT22;13689;48.590;7.752;2022-09-16T00:19:26;17.00;92.90
25871;DHT22;13689;48.590;7.752;2022-09-16T00:21:51;17.00;92.90
25871;DHT22;13689;48.590;7.752;2022-09-16T00:24:17;17.10;93.00
25871;DHT22;13689;48.590;7.752;2022-09-16T00:26:42;17.10;93.00
25871;DHT22;13689;48.590;7.752;2022-09-16T00:29:08;17.10;93.00
25871;DHT22;13689;48.590;7.752;2022-09-16T00:31:34;17.10;93.00
25871;DHT22;13689;48.590;7.752;2022-09-16T00:34:00;17.10;93.10
25871;DHT22;13689;48.590;7.752;2022-09-16T00:36:25;17.10;93.10
25871;DHT22;13689;48.590;7.752;2022-09-16T00:38:51;17.10;93.10
25871;DHT22;13689;48.590;7.752;2022-09-16T00:41:18;17.10;93.10
25871;DHT22;13689;48.590;7.752;2022-09-16T00:43:58;17.20;93.10
25871;DHT22;13689;48.590;7.752;2022-09-16T00:46:25;17.10;93.00
25871;DHT22;13689;48.590;7.752;2022-09-16T00:48:53;17.10;93.00
25871;DHT22;13689;48.590;7.752;2022-09-16T00:51:19;17.10;93.00
25871;DHT22;13689;48.590;7.752;2022-09-16T00:53:46;17.10;93.00
25871;DHT22;13689;48.590;7.752;2022-09-16T00:56:13;17.10;93.00
25871;DHT22;13689;48.590;7.752;2022-09-16T00:58:42;17.10;93.00
25871;DHT22;13689;48.590;7.752;2022-09-16T01:01:10;17.20;93.00
25871;DHT22;13689;48.590;7.752;2022-09-16T01:03:45;17.20;93.00
25871;DHT22;13689;48.590;7.752;2022-09-16T01:06:13;17.20;93.00
25871;DHT22;13689;48.590;7.752;2022-09-16T01:08:40;17.20;92.90
25871;DHT22;13689;48.590;7.752;2022-09-16T01:11:06;17.20;92.90
25871;DHT22;13689;48.590;7.752;2022-09-16T01:13:33;17.10;92.80
25871;DHT22;13689;48.590;7.752;2022-09-16T01:21:11;17.20;92.80
25871;DHT22;13689;48.590;7.752;2022-09-16T01:34:19;17.30;92.40
25871;DHT22;13689;48.590;7.752;2022-09-16T01:46:47;17.20;92.10
25871;DHT22;13689;48.590;7.752;2022-09-16T01:59:52;17.30;91.90
25871;DHT22;13689;48.590;7.752;2022-09-16T02:04:46;17.30;91.80
25871;DHT22;13689;48.590;7.752;2022-09-16T02:07:13;17.30;91.70
25871;DHT22;13689;48.590;7.752;2022-09-16T02:09:41;17.30;91.70
25871;DHT22;13689;48.590;7.752;2022-09-16T02:12:09;17.30;91.60
25871;DHT22;13689;48.590;7.752;2022-09-16T02:14:43;17.30;91.50
25871;DHT22;13689;48.590;7.752;2022-09-16T02:17:10;17.30;91.50
25871;DHT22;13689;48.590;7.752;2022-09-16T02:19:41;17.30;91.50
25871;DHT22;13689;48.590;7.752;2022-09-16T02:22:08;17.30;91.40
25871;DHT22;13689;48.590;7.752;2022-09-16T02:24:36;17.30;91.40
25871;DHT22;13689;48.590;7.752;2022-09-16T02:27:03;17.20;91.40
25871;DHT22;13689;48.590;7.752;2022-09-16T02:29:31;17.20;91.30
25871;DHT22;13689;48.590;7.752;2022-09-16T02:32:01;17.20;91.40
25871;DHT22;13689;48.590;7.752;2022-09-16T02:34:38;17.20;91.40
25871;DHT22;13689;48.590;7.752;2022-09-16T02:37:14;17.10;91.40
25871;DHT22;13689;48.590;7.752;2022-09-16T02:39:41;17.10;91.50
25871;DHT22;13689;48.590;7.752;2022-09-16T02:42:09;17.10;91.50
25871;DHT22;13689;48.590;7.752;2022-09-16T02:44:34;17.10;91.50
25871;DHT22;13689;48.590;7.752;2022-09-16T02:47:25;17.10;91.50
25871;DHT22;13689;48.590;7.752;2022-09-16T02:49:53;17.10;91.50
25871;DHT22;13689;48.590;7.752;2022-09-16T02:57:29;17.10;91.50
25871;DHT22;13689;48.590;7.752;2022-09-16T02:59:54;17.20;91.60
25871;DHT22;13689;48.590;7.752;2022-09-16T03:02:20;17.20;91.50
25871;DHT22;13689;48.590;7.752;2022-09-16T03:04:46;17.20;91.50
25871;DHT22;13689;48.590;7.752;2022-09-16T03:07:12;17.20;91.50
25871;DHT22;13689;48.590;7.752;2022-09-16T03:09:40;17.10;91.50
25871;DHT22;13689;48.590;7.752;2022-09-16T03:25:09;17.10;91.50
25871;DHT22;13689;48.590;7.752;2022-09-16T03:27:40;17.10;91.60
25871;DHT22;13689;48.590;7.752;2022-09-16T03:30:10;17.00;91.70
25871;DHT22;13689;48.590;7.752;2022-09-16T03:35:09;17.00;91.80
25871;DHT22;13689;48.590;7.752;2022-09-16T03:37:36;17.10;91.90
25871;DHT22;13689;48.590;7.752;2022-09-16T03:40:07;17.10;91.90
25871;DHT22;13689;48.590;7.752;2022-09-16T03:42:33;17.00;91.90
25871;DHT22;13689;48.590;7.752;2022-09-16T03:44:59;17.00;92.00
25871;DHT22;13689;48.590;7.752;2022-09-16T03:47:25;16.90;92.20
25871;DHT22;13689;48.590;7.752;2022-09-16T03:49:50;16.80;92.20
25871;DHT22;13689;48.590;7.752;2022-09-16T03:52:16;16.70;92.50
25871;DHT22;13689;48.590;7.752;2022-09-16T03:54:44;16.50;92.90
25871;DHT22;13689;48.590;7.752;2022-09-16T03:57:09;16.50;93.50
25871;DHT22;13689;48.590;7.752;2022-09-16T03:59:35;16.40;93.90
25871;DHT22;13689;48.590;7.752;2022-09-16T04:02:00;16.30;94.20
25871;DHT22;13689;48.590;7.752;2022-09-16T04:04:26;16.30;94.70
25871;DHT22;13689;48.590;7.752;2022-09-16T04:06:51;16.30;95.10
25871;DHT22;13689;48.590;7.752;2022-09-16T04:09:17;16.20;95.50
25871;DHT22;13689;48.590;7.752;2022-09-16T04:11:42;16.20;95.80
25871;DHT22;13689;48.590;7.752;2022-09-16T04:14:08;16.10;96.10
25871;DHT22;13689;48.590;7.752;2022-09-16T04:16:34;16.10;96.50
25871;DHT22;13689;48.590;7.752;2022-09-16T04:18:59;16.10;97.00
25871;DHT22;13689;48.590;7.752;2022-09-16T04:21:25;16.10;97.50
25871;DHT22;13689;48.590;7.752;2022-09-16T04:23:50;16.10;97.80
25871;DHT22;13689;48.590;7.752;2022-09-16T04:26:16;16.10;98.10
25871;DHT22;13689;48.590;7.752;2022-09-16T04:28:42;16.10;98.40
25871;DHT22;13689;48.590;7.752;2022-09-16T04:31:11;16.10;98.70
25871;DHT22;13689;48.590;7.752;2022-09-16T04:33:37;16.00;98.80
25871;DHT22;13689;48.590;7.752;2022-09-16T04:36:07;15.90;99.40
25871;DHT22;13689;48.590;7.752;2022-09-16T04:38:36;15.90;99.90
25871;DHT22;13689;48.590;7.752;2022-09-16T04:41:04;15.90;99.90
25871;DHT22;13689;48.590;7.752;2022-09-16T04:43:29;15.90;99.90
25871;DHT22;13689;48.590;7.752;2022-09-16T04:45:55;15.80;99.90
25871;DHT22;13689;48.590;7.752;2022-09-16T04:48:21;15.80;99.90
25871;DHT22;13689;48.590;7.752;2022-09-16T04:50:46;15.70;99.90
25871;DHT22;13689;48.590;7.752;2022-09-16T04:53:12;15.70;99.90
25871;DHT22;13689;48.590;7.752;2022-09-16T04:55:37;15.70;99.90
25871;DHT22;13689;48.590;7.752;2022-09-16T04:58:03;15.60;99.90
25871;DHT22;13689;48.590;7.752;2022-09-16T05:00:29;15.70;99.90
25871;DHT22;13689;48.590;7.752;2022-09-16T05:02:54;15.60;99.90
25871;DHT22;13689;48.590;7.752;2022-09-16T05:05:20;15.60;99.90
25871;DHT22;13689;48.590;7.752;2022-09-16T05:07:46;15.50;99.90
25871;DHT22;13689;48.590;7.752;2022-09-16T05:10:11;15.50;99.90
25871;DHT22;13689;48.590;7.752;2022-09-16T05:12:37;15.50;99.90
25871;DHT22;13689;48.590;7.752;2022-09-16T05:15:04;15.50;99.90
25871;DHT22;13689;48.590;7.752;2022-09-16T05:17:30;15.50;99.90
25871;DHT22;13689;48.590;7.752;2022-09-16T05:19:56;15.40;99.90
25871;DHT22;13689;48.590;7.752;2022-09-16T05:22:22;15.30;99.90
25871;DHT22;13689;48.590;7.752;2022-09-16T05:24:47;15.30;99.90
25871;DHT22;13689;48.590;7.752;2022-09-16T05:27:14;15.30;99.90
25871;DHT22;13689;48.590;7.752;2022-09-16T05:29:39;15.30;99.90
25871;DHT22;13689;48.590;7.752;2022-09-16T05:32:05;15.30;99.90
25871;DHT22;13689;48.590;7.752;2022-09-16T05:34:30;15.30;99.90
25871;DHT22;13689;48.590;7.752;2022-09-16T05:36:56;15.40;99.90
25871;DHT22;13689;48.590;7.752;2022-09-16T05:39:21;15.40;99.90
25871;DHT22;13689;48.590;7.752;2022-09-16T05:41:47;15.40;99.90
25871;DHT22;13689;48.590;7.752;2022-09-16T05:44:13;15.40;99.90
25871;DHT22;13689;48.590;7.752;2022-09-16T05:46:39;15.40;99.90
25871;DHT22;13689;48.590;7.752;2022-09-16T05:49:05;15.30;99.90
25871;DHT22;13689;48.590;7.752;2022-09-16T05:51:30;15.10;99.90
25871;DHT22;13689;48.590;7.752;2022-09-16T05:53:57;15.10;99.90
25871;DHT22;13689;48.590;7.752;2022-09-16T05:56:23;15.10;99.90
25871;DHT22;13689;48.590;7.752;2022-09-16T05:58:50;15.00;99.90
25871;DHT22;13689;48.590;7.752;2022-09-16T06:01:18;14.90;99.90
25871;DHT22;13689;48.590;7.752;2022-09-16T06:03:44;14.80;99.90
25871;DHT22;13689;48.590;7.752;2022-09-16T06:06:11;14.80;99.90
25871;DHT22;13689;48.590;7.752;2022-09-16T06:08:38;14.80;99.90
25871;DHT22;13689;48.590;7.752;2022-09-16T06:11:04;14.90;99.90
25871;DHT22;13689;48.590;7.752;2022-09-16T06:13:30;14.90;99.90
25871;DHT22;13689;48.590;7.752;2022-09-16T06:15:56;14.90;99.90
25871;DHT22;13689;48.590;7.752;2022-09-16T06:18:22;14.90;99.90
25871;DHT22;13689;48.590;7.752;2022-09-16T06:20:48;14.80;99.90
25871;DHT22;13689;48.590;7.752;2022-09-16T06:23:14;14.80;99.90
25871;DHT22;13689;48.590;7.752;2022-09-16T06:25:40;14.80;99.90
25871;DHT22;13689;48.590;7.752;2022-09-16T06:28:05;14.80;99.90
25871;DHT22;13689;48.590;7.752;2022-09-16T06:30:31;14.90;99.90
25871;DHT22;13689;48.590;7.752;2022-09-16T06:32:57;14.90;99.90
25871;DHT22;13689;48.590;7.752;2022-09-16T06:35:22;15.00;99.90
25871;DHT22;13689;48.590;7.752;2022-09-16T06:37:48;14.90;99.90
25871;DHT22;13689;48.590;7.752;2022-09-16T06:40:13;15.00;99.90
25871;DHT22;13689;48.590;7.752;2022-09-16T06:42:39;15.00;99.90
25871;DHT22;13689;48.590;7.752;2022-09-16T06:45:05;15.00;99.90
25871;DHT22;13689;48.590;7.752;2022-09-16T06:47:31;15.00;99.90
25871;DHT22;13689;48.590;7.752;2022-09-16T06:49:59;15.00;99.90
25871;DHT22;13689;48.590;7.752;2022-09-16T06:52:25;15.00;99.90
25871;DHT22;13689;48.590;7.752;2022-09-16T06:54:51;15.00;99.90
25871;DHT22;13689;48.590;7.752;2022-09-16T06:57:17;15.00;99.90
25871;DHT22;13689;48.590;7.752;2022-09-16T06:59:44;15.00;99.90
25871;DHT22;13689;48.590;7.752;2022-09-16T07:02:10;15.10;99.90
25871;DHT22;13689;48.590;7.752;2022-09-16T07:04:36;15.10;99.90
25871;DHT22;13689;48.590;7.752;2022-09-16T07:07:01;15.10;99.90
25871;DHT22;13689;48.590;7.752;2022-09-16T07:09:27;15.20;99.90
25871;DHT22;13689;48.590;7.752;2022-09-16T07:11:53;15.10;99.90
25871;DHT22;13689;48.590;7.752;2022-09-16T07:14:19;15.10;99.90
25871;DHT22;13689;48.590;7.752;2022-09-16T07:16:44;15.10;99.90
25871;DHT22;13689;48.590;7.752;2022-09-16T07:19:10;15.10;99.90
25871;DHT22;13689;48.590;7.752;2022-09-16T07:21:35;15.10;99.90
25871;DHT22;13689;48.590;7.752;2022-09-16T07:24:01;15.20;99.90
25871;DHT22;13689;48.590;7.752;2022-09-16T07:26:31;15.20;99.90
25871;DHT22;13689;48.590;7.752;2022-09-16T07:28:58;15.20;99.90
25871;DHT22;13689;48.590;7.752;2022-09-16T07:31:24;15.20;99.90
25871;DHT22;13689;48.590;7.752;2022-09-16T07:33:51;15.10;99.90
25871;DHT22;13689;48.590;7.752;2022-09-16T07:36:18;15.20;99.90
25871;DHT22;13689;48.590;7.752;2022-09-16T07:38:44;15.20;99.90
25871;DHT22;13689;48.590;7.752;2022-09-16T07:41:10;15.20;99.90
25871;DHT22;13689;48.590;7.752;2022-09-16T07:43:37;15.20;99.90
25871;DHT22;13689;48.590;7.752;2022-09-16T07:46:02;15.20;99.90
25871;DHT22;13689;48.590;7.752;2022-09-16T07:48:28;15.20;99.90
25871;DHT22;13689;48.590;7.752;2022-09-16T07:50:58;15.20;99.90
25871;DHT22;13689;48.590;7.752;2022-09-16T07:53:24;15.20;99.90
25871;DHT22;13689;48.590;7.752;2022-09-16T07:55:52;15.30;99.90
25871;DHT22;13689;48.590;7.752;2022-09-16T07:58:17;15.40;99.90
25871;DHT22;13689;48.590;7.752;2022-09-16T08:00:43;15.40;99.90
25871;DHT22;13689;48.590;7.752;2022-09-16T08:03:09;15.50;99.90
25871;DHT22;13689;48.590;7.752;2022-09-16T08:05:35;15.40;99.90
25871;DHT22;13689;48.590;7.752;2022-09-16T08:08:00;15.30;99.90
25871;DHT22;13689;48.590;7.752;2022-09-16T08:10:26;15.30;99.90
25871;DHT22;13689;48.590;7.752;2022-09-16T08:12:52;15.30;99.90
25871;DHT22;13689;48.590;7.752;2022-09-16T08:15:17;15.30;99.90
25871;DHT22;13689;48.590;7.752;2022-09-16T08:17:43;15.50;99.90
25871;DHT22;13689;48.590;7.752;2022-09-16T08:20:08;15.60;99.90
25871;DHT22;13689;48.590;7.752;2022-09-16T08:22:34;15.70;99.90
25871;DHT22;13689;48.590;7.752;2022-09-16T08:24:59;15.80;99.90
25871;DHT22;13689;48.590;7.752;2022-09-16T08:27:25;15.90;99.90
25871;DHT22;13689;48.590;7.752;2022-09-16T08:29:50;16.00;99.90
25871;DHT22;13689;48.590;7.752;2022-09-16T08:32:16;16.10;99.90
25871;DHT22;13689;48.590;7.752;2022-09-16T08:34:41;16.20;99.90
25871;DHT22;13689;48.590;7.752;2022-09-16T08:37:07;16.20;99.90
25871;DHT22;13689;48.590;7.752;2022-09-16T08:39:33;16.30;99.90
25871;DHT22;13689;48.590;7.752;2022-09-16T08:44:59;16.60;99.90
25871;DHT22;13689;48.590;7.752;2022-09-16T08:50:09;17.50;99.90
25871;DHT22;13689;48.590;7.752;2022-09-16T08:52:37;17.60;99.90
25871;DHT22;13689;48.590;7.752;2022-09-16T08:55:09;17.60;99.90
25871;DHT22;13689;48.590;7.752;2022-09-16T08:57:40;17.50;99.90
25871;DHT22;13689;48.590;7.752;2022-09-16T09:00:09;17.30;99.90
25871;DHT22;13689;48.590;7.752;2022-09-16T09:05:01;17.10;99.90
25871;DHT22;13689;48.590;7.752;2022-09-16T09:12:44;17.10;99.90
25871;DHT22;13689;48.590;7.752;2022-09-16T09:26:07;17.20;99.90
25871;DHT22;13689;48.590;7.752;2022-09-16T09:28:45;17.20;99.90
25871;DHT22;13689;48.590;7.752;2022-09-16T09:36:46;17.30;99.90
25871;DHT22;13689;48.590;7.752;2022-09-16T09:39:50;17.20;99.90
25871;DHT22;13689;48.590;7.752;2022-09-16T09:42:09;17.20;99.90
25871;DHT22;13689;48.590;7.752;2022-09-16T09:47:11;17.30;99.90
25871;DHT22;13689;48.590;7.752;2022-09-16T09:49:40;18.10;99.90
25871;DHT22;13689;48.590;7.752;2022-09-16T09:52:08;18.70;95.80
25871;DHT22;13689;48.590;7.752;2022-09-16T09:54:38;19.00;93.50
25871;DHT22;13689;48.590;7.752;2022-09-16T09:57:09;19.40;92.70
25871;DHT22;13689;48.590;7.752;2022-09-16T10:02:02;19.80;91.00
25871;DHT22;13689;48.590;7.752;2022-09-16T10:04:29;19.80;90.10
25871;DHT22;13689;48.590;7.752;2022-09-16T10:06:56;19.80;90.10
25871;DHT22;13689;48.590;7.752;2022-09-16T10:09:22;19.70;90.10
25871;DHT22;13689;48.590;7.752;2022-09-16T10:11:49;19.50;90.00
25871;DHT22;13689;48.590;7.752;2022-09-16T10:14:23;19.40;89.90
25871;DHT22;13689;48.590;7.752;2022-09-16T10:16:49;19.30;89.90
25871;DHT22;13689;48.590;7.752;2022-09-16T10:19:25;19.20;90.00
25871;DHT22;13689;48.590;7.752;2022-09-16T10:21:55;19.20;89.80
25871;DHT22;13689;48.590;7.752;2022-09-16T10:26:57;19.10;89.40
25871;DHT22;13689;48.590;7.752;2022-09-16T10:29:23;18.90;89.40
25871;DHT22;13689;48.590;7.752;2022-09-16T10:31:49;18.70;89.50
25871;DHT22;13689;48.590;7.752;2022-09-16T10:36:40;18.40;89.80
25871;DHT22;13689;48.590;7.752;2022-09-16T10:39:16;18.20;90.00
25871;DHT22;13689;48.590;7.752;2022-09-16T10:41:46;18.00;90.20
25871;DHT22;13689;48.590;7.752;2022-09-16T10:44:16;17.80;90.30
25871;DHT22;13689;48.590;7.752;2022-09-16T10:46:52;17.70;90.50
25871;DHT22;13689;48.590;7.752;2022-09-16T10:49:20;17.60;90.60
25871;DHT22;13689;48.590;7.752;2022-09-16T10:51:47;17.40;90.60
25871;DHT22;13689;48.590;7.752;2022-09-16T10:54:22;17.30;90.80
25871;DHT22;13689;48.590;7.752;2022-09-16T10:56:49;17.20;90.60
25871;DHT22;13689;48.590;7.752;2022-09-16T10:59:14;17.20;90.40
25871;DHT22;13689;48.590;7.752;2022-09-16T11:07:06;17.40;89.80
25871;DHT22;13689;48.590;7.752;2022-09-16T11:17:17;18.70;84.50
25871;DHT22;13689;48.590;7.752;2022-09-16T11:40:21;19.30;78.20
25871;DHT22;13689;48.590;7.752;2022-09-16T11:42:51;19.00;78.80
25871;DHT22;13689;48.590;7.752;2022-09-16T11:48:06;18.50;78.70
25871;DHT22;13689;48.590;7.752;2022-09-16T11:50:46;18.40;78.40
25871;DHT22;13689;48.590;7.752;2022-09-16T11:53:34;18.40;78.30
25871;DHT22;13689;48.590;7.752;2022-09-16T11:56:07;18.40;77.40
25871;DHT22;13689;48.590;7.752;2022-09-16T12:01:30;18.80;75.50
25871;DHT22;13689;48.590;7.752;2022-09-16T12:04:03;18.90;74.40
25871;DHT22;13689;48.590;7.752;2022-09-16T12:12:11;19.50;72.10
25871;DHT22;13689;48.590;7.752;2022-09-16T12:14:39;19.60;70.80
25871;DHT22;13689;48.590;7.752;2022-09-16T12:17:11;19.70;69.70
25871;DHT22;13689;48.590;7.752;2022-09-16T12:19:51;19.70;68.10
25871;DHT22;13689;48.590;7.752;2022-09-16T12:22:20;19.70;67.10
25871;DHT22;13689;48.590;7.752;2022-09-16T12:24:56;19.80;66.60
25871;DHT22;13689;48.590;7.752;2022-09-16T12:27:27;19.70;65.40
25871;DHT22;13689;48.590;7.752;2022-09-16T12:30:00;19.70;64.40
25871;DHT22;13689;48.590;7.752;2022-09-16T12:32:33;19.60;64.00
25871;DHT22;13689;48.590;7.752;2022-09-16T12:35:01;19.50;63.80
25871;DHT22;13689;48.590;7.752;2022-09-16T12:37:47;19.40;63.40
25871;DHT22;13689;48.590;7.752;2022-09-16T12:40:15;19.30;63.20
25871;DHT22;13689;48.590;7.752;2022-09-16T12:53:25;19.60;61.90
25871;DHT22;13689;48.590;7.752;2022-09-16T13:01:14;19.80;61.60
25871;DHT22;13689;48.590;7.752;2022-09-16T13:03:42;19.80;60.80
25871;DHT22;13689;48.590;7.752;2022-09-16T13:06:22;19.60;60.30
25871;DHT22;13689;48.590;7.752;2022-09-16T13:08:48;19.40;60.20
25871;DHT22;13689;48.590;7.752;2022-09-16T13:11:24;19.50;60.30
25871;DHT22;13689;48.590;7.752;2022-09-16T13:13:52;19.40;59.80
25871;DHT22;13689;48.590;7.752;2022-09-16T13:16:29;19.40;59.50
25871;DHT22;13689;48.590;7.752;2022-09-16T13:21:42;19.30;59.50
25871;DHT22;13689;48.590;7.752;2022-09-16T13:24:13;19.30;59.40
25871;DHT22;13689;48.590;7.752;2022-09-16T13:26:40;19.30;59.40
25871;DHT22;13689;48.590;7.752;2022-09-16T13:31:50;19.20;59.50
25871;DHT22;13689;48.590;7.752;2022-09-16T13:34:16;19.30;59.30
25871;DHT22;13689;48.590;7.752;2022-09-16T13:36:42;19.30;59.20
25871;DHT22;13689;48.590;7.752;2022-09-16T13:39:11;19.30;59.30
25871;DHT22;13689;48.590;7.752;2022-09-16T13:44:26;19.10;59.20
25871;DHT22;13689;48.590;7.752;2022-09-16T13:46:52;19.10;59.30
25871;DHT22;13689;48.590;7.752;2022-09-16T13:49:18;19.10;59.30
25871;DHT22;13689;48.590;7.752;2022-09-16T13:51:45;19.20;59.10
25871;DHT22;13689;48.590;7.752;2022-09-16T13:54:19;19.40;58.80
25871;DHT22;13689;48.590;7.752;2022-09-16T14:07:13;19.40;58.00
25871;DHT22;13689;48.590;7.752;2022-09-16T14:09:49;19.50;57.70
25871;DHT22;13689;48.590;7.752;2022-09-16T14:12:23;19.50;57.60
25871;DHT22;13689;48.590;7.752;2022-09-16T14:14:51;19.60;57.70
25871;DHT22;13689;48.590;7.752;2022-09-16T14:17:21;19.50;57.40
25871;DHT22;13689;48.590;7.752;2022-09-16T14:19:48;19.40;57.20
25871;DHT22;13689;48.590;7.752;2022-09-16T14:22:17;19.40;57.00
25871;DHT22;13689;48.590;7.752;2022-09-16T14:24:44;19.40;57.00
25871;DHT22;13689;48.590;7.752;2022-09-16T14:27:17;19.40;57.00
25871;DHT22;13689;48.590;7.752;2022-09-16T14:29:53;19.20;57.00
25871;DHT22;13689;48.590;7.752;2022-09-16T14:32:19;19.10;57.10
25871;DHT22;13689;48.590;7.752;2022-09-16T14:34:44;19.00;58.00
25871;DHT22;13689;48.590;7.752;2022-09-16T14:37:13;19.00;57.60
25871;DHT22;13689;48.590;7.752;2022-09-16T14:39:40;18.80;57.50
25871;DHT22;13689;48.590;7.752;2022-09-16T14:42:07;18.80;57.70
25871;DHT22;13689;48.590;7.752;2022-09-16T14:44:36;18.80;57.70
25871;DHT22;13689;48.590;7.752;2022-09-16T14:47:46;18.80;57.60
25871;DHT22;13689;48.590;7.752;2022-09-16T14:50:06;18.70;57.60
25871;DHT22;13689;48.590;7.752;2022-09-16T14:52:33;18.50;57.20
25871;DHT22;13689;48.590;7.752;2022-09-16T14:54:58;18.50;57.30
25871;DHT22;13689;48.590;7.752;2022-09-16T14:57:25;18.40;57.30
25871;DHT22;13689;48.590;7.752;2022-09-16T14:59:51;18.40;57.20
25871;DHT22;13689;48.590;7.752;2022-09-16T15:02:22;18.40;57.30
25871;DHT22;13689;48.590;7.752;2022-09-16T15:04:51;18.40;57.30
25871;DHT22;13689;48.590;7.752;2022-09-16T15:07:36;18.40;57.10
25871;DHT22;13689;48.590;7.752;2022-09-16T15:10:05;18.50;57.10
25871;DHT22;13689;48.590;7.752;2022-09-16T15:12:33;18.50;57.80
25871;DHT22;13689;48.590;7.752;2022-09-16T15:15:19;18.50;57.30
25871;DHT22;13689;48.590;7.752;2022-09-16T15:17:51;18.60;57.20
25871;DHT22;13689;48.590;7.752;2022-09-16T15:20:17;18.60;57.00
25871;DHT22;13689;48.590;7.752;2022-09-16T15:22:44;18.60;56.90
25871;DHT22;13689;48.590;7.752;2022-09-16T15:25:17;18.60;57.00
25871;DHT22;13689;48.590;7.752;2022-09-16T15:27:43;18.50;57.10
25871;DHT22;13689;48.590;7.752;2022-09-16T15:30:30;18.50;57.30
25871;DHT22;13689;48.590;7.752;2022-09-16T15:32:54;18.50;57.40
25871;DHT22;13689;48.590;7.752;2022-09-16T15:35:21;18.40;57.30
25871;DHT22;13689;48.590;7.752;2022-09-16T15:37:47;18.40;57.30
25871;DHT22;13689;48.590;7.752;2022-09-16T15:40:29;18.40;57.30
25871;DHT22;13689;48.590;7.752;2022-09-16T15:45:40;18.30;57.10
25871;DHT22;13689;48.590;7.752;2022-09-16T15:48:19;18.20;57.00
25871;DHT22;13689;48.590;7.752;2022-09-16T15:53:12;18.20;57.10
25871;DHT22;13689;48.590;7.752;2022-09-16T15:55:41;18.20;57.10
25871;DHT22;13689;48.590;7.752;2022-09-16T16:00:58;18.00;57.10
25871;DHT22;13689;48.590;7.752;2022-09-16T16:03:22;18.00;57.10
25871;DHT22;13689;48.590;7.752;2022-09-16T16:05:52;17.90;57.20
25871;DHT22;13689;48.590;7.752;2022-09-16T16:08:51;18.00;57.20
25871;DHT22;13689;48.590;7.752;2022-09-16T16:11:11;18.00;57.20
25871;DHT22;13689;48.590;7.752;2022-09-16T16:13:36;18.00;57.10
25871;DHT22;13689;48.590;7.752;2022-09-16T16:16:03;18.00;57.00
25871;DHT22;13689;48.590;7.752;2022-09-16T16:18:30;18.00;57.00
25871;DHT22;13689;48.590;7.752;2022-09-16T16:20:59;18.10;56.90
25871;DHT22;13689;48.590;7.752;2022-09-16T16:23:26;18.10;56.90
25871;DHT22;13689;48.590;7.752;2022-09-16T16:25:58;18.20;56.80
25871;DHT22;13689;48.590;7.752;2022-09-16T16:28:23;18.20;56.80
25871;DHT22;13689;48.590;7.752;2022-09-16T16:30:49;18.30;56.70
25871;DHT22;13689;48.590;7.752;2022-09-16T16:33:15;18.30;56.50
25871;DHT22;13689;48.590;7.752;2022-09-16T16:35:40;18.30;56.60
25871;DHT22;13689;48.590;7.752;2022-09-16T16:38:06;18.20;56.50
25871;DHT22;13689;48.590;7.752;2022-09-16T16:40:32;18.20;56.60
25871;DHT22;13689;48.590;7.752;2022-09-16T16:42:57;18.10;56.70
25871;DHT22;13689;48.590;7.752;2022-09-16T16:45:23;18.00;56.80
25871;DHT22;13689;48.590;7.752;2022-09-16T16:47:48;17.90;56.90
25871;DHT22;13689;48.590;7.752;2022-09-16T16:50:14;17.90;56.90
25871;DHT22;13689;48.590;7.752;2022-09-16T16:52:40;17.70;56.90
25871;DHT22;13689;48.590;7.752;2022-09-16T16:55:05;17.70;57.20
25871;DHT22;13689;48.590;7.752;2022-09-16T16:57:31;17.60;57.10
25871;DHT22;13689;48.590;7.752;2022-09-16T16:59:57;17.50;57.10
25871;DHT22;13689;48.590;7.752;2022-09-16T17:02:22;17.50;57.90
25871;DHT22;13689;48.590;7.752;2022-09-16T17:04:48;17.50;57.50
25871;DHT22;13689;48.590;7.752;2022-09-16T17:07:16;17.50;57.70
25871;DHT22;13689;48.590;7.752;2022-09-16T17:09:44;17.40;57.80
25871;DHT22;13689;48.590;7.752;2022-09-16T17:12:10;17.50;58.00
25871;DHT22;13689;48.590;7.752;2022-09-16T17:14:37;17.60;58.00
25871;DHT22;13689;48.590;7.752;2022-09-16T17:17:03;17.60;58.00
25871;DHT22;13689;48.590;7.752;2022-09-16T17:19:28;17.50;58.30
25871;DHT22;13689;48.590;7.752;2022-09-16T17:21:56;17.40;58.60
25871;DHT22;13689;48.590;7.752;2022-09-16T17:24:22;17.30;58.90
25871;DHT22;13689;48.590;7.752;2022-09-16T17:26:47;17.20;59.10
25871;DHT22;13689;48.590;7.752;2022-09-16T17:29:13;17.20;59.20
25871;DHT22;13689;48.590;7.752;2022-09-16T17:31:39;17.10;59.20
25871;DHT22;13689;48.590;7.752;2022-09-16T17:34:06;17.00;59.30
25871;DHT22;13689;48.590;7.752;2022-09-16T17:36:32;17.00;59.40
25871;DHT22;13689;48.590;7.752;2022-09-16T17:38:59;16.90;59.40
25871;DHT22;13689;48.590;7.752;2022-09-16T17:41:25;16.80;59.40
25871;DHT22;13689;48.590;7.752;2022-09-16T17:43:52;16.70;59.50
25871;DHT22;13689;48.590;7.752;2022-09-16T17:46:17;16.50;59.80
25871;DHT22;13689;48.590;7.752;2022-09-16T17:48:44;16.40;60.20
25871;DHT22;13689;48.590;7.752;2022-09-16T17:51:10;16.40;60.40
25871;DHT22;13689;48.590;7.752;2022-09-16T17:53:36;16.30;60.60
25871;DHT22;13689;48.590;7.752;2022-09-16T17:56:09;16.30;60.80
25871;DHT22;13689;48.590;7.752;2022-09-16T17:58:35;16.30;61.10
25871;DHT22;13689;48.590;7.752;2022-09-16T18:01:04;16.20;61.20
25871;DHT22;13689;48.590;7.752;2022-09-16T18:03:30;16.10;61.20
25871;DHT22;13689;48.590;7.752;2022-09-16T18:06:01;16.10;61.50
25871;DHT22;13689;48.590;7.752;2022-09-16T18:08:27;16.10;61.60
25871;DHT22;13689;48.590;7.752;2022-09-16T18:10:52;16.00;61.60
25871;DHT22;13689;48.590;7.752;2022-09-16T18:13:18;16.00;61.80
25871;DHT22;13689;48.590;7.752;2022-09-16T18:15:43;16.00;61.80
25871;DHT22;13689;48.590;7.752;2022-09-16T18:18:09;16.00;62.00
25871;DHT22;13689;48.590;7.752;2022-09-16T18:20:35;16.00;62.20
25871;DHT22;13689;48.590;7.752;2022-09-16T18:23:00;15.90;62.20
25871;DHT22;13689;48.590;7.752;2022-09-16T18:25:25;15.90;62.40
25871;DHT22;13689;48.590;7.752;2022-09-16T18:27:51;15.80;62.50
25871;DHT22;13689;48.590;7.752;2022-09-16T18:30:17;15.80;62.70
25871;DHT22;13689;48.590;7.752;2022-09-16T18:32:42;15.70;62.90
25871;DHT22;13689;48.590;7.752;2022-09-16T18:35:08;15.60;63.10
25871;DHT22;13689;48.590;7.752;2022-09-16T18:37:36;15.60;63.30
25871;DHT22;13689;48.590;7.752;2022-09-16T18:40:01;15.50;63.50